KGTR Airport (Golden Triangle Rgnl) Information

FAA: GTR - ICAO: KGTR

KGTR Airport Location

State Mississippi
County Lowndes
City Columbus/W Point/Starkville
KGTR Airport is 10 miles west of Columbus/W Point/Starkville, MS.
Latitude 33-26-53.8000N
Longitude 088-35-29.0000W
Elevation 264ft

KGTR Airport METARs

METAR KGTR 302056Z 36009G18KT 10SM CLR 26/06 A2994 RMK AO2 SLP145 T02610061 56024
Altimeter 29.94"
Temperature 26.1°C (79.0°F)
Wind 360° at 9KT with gusts to 18KT
Clouds Skies are clear.
Visibility 10.0mi
Time observed: 2022-09-30T20:56:00Z

KGTR Airport Details

Status Operational
Activation August 1971
Ownership Public
Usage Public
Chart MEMPHIS
ATC on-site Yes
Beacon schedule sunset-sunrise
Beacon color clear green

KGTR Airport Contacts

Owner GOLDEN TRIANGLE REG AUTH
Owner address 2080 AIRPORT ROAD, COLUMBUS, MS 39701
Owner phone 662-327-4422
Manager CARL DAVIS
Manager address 513 HART ROAD, CANTON, MS 39046-8315
Manager phone 601-212-4283

KGTR Airport (Golden Triangle Rgnl) Radio Frequencies

KGTR (Airport) Radio Frequencies

UNICOM 122.95
Common traffic advisory frequency (CTAF) 118.2